Cortijo de Palomo, Spain

8:16 AM CEST on April 29, 2017 (GMT +0200)
Arahal | | Change Station

Elev 364 ft 37.26 °N, 5.54 °W | Updated 1 minute ago

Overcast
Overcast
56.8 °F
Feels Like 56.8 °F
N
0.0
Wind Variable Wind from South
Gusts 0.0 mph

Today
High -- | Low -- °F
--% Chance of Precip.
Yesterday
High -- | Low -- °F
Precip. -- in
Pressure 29.86 in
Visibility 6.2 miles
Clouds Mostly Cloudy 1000 ft
Mostly Cloudy 2000 ft
Dew Point 55 °F
Humidity 95%
Rainfall 0.12 in
Snow Depth Not available.
7:30 AM 9:10 PM
Waxing Crescent, 11% visible
SPECI LEZL 290606Z VRB01KT 9999 BKN010 BKN020 14/14 Q1011 NOSIG
Pressure 29.86 in
Visibility 6.2 miles
Clouds Mostly Cloudy 1000 ft
Mostly Cloudy 2000 ft
Dew Point 55 °F
Humidity 95%
Rainfall 0.12 in
Snow Depth Not available.
7:30 AM 9:10 PM
Waxing Crescent, 11% visible
SPECI LEZL 290606Z VRB01KT 9999 BKN010 BKN020 14/14 Q1011 NOSIG

Get Severe Weather Alerts

Thanks for signing up!

Be on the lookout for a verification email in your inbox.

You'll start receiving the daily forecast at 8 AM.

×

10-Day Weather Forecast

×

Almanac

Astronomy

Apr. 29, 2017 Rise Set
Actual Time
Civil Twilight
Nautical Twilight
Astronomical Twilight
Moon
Length of Visible Light
Length of Day
Tomorrow will be .
, % of the Moon is Illuminated

Today's Extremes

Country Highs Country Lows

Community

WunderPhotos

WunderBlog® & News

Nearby

Air Quality

  Air Quality AQ Index Pollutant
Not available.

Snow Depth

Station Depth Elevation

Earthquake Activity

City Distance Mag. Time & Date
Minimum magnitude displayed is 2.5.

Coastal Water Temperatures

Place Temperature

Stations

Nearby Weather Stations

Station Location Temp. Windchill Dew Point Humidity Wind Precip. Elev Updated Type